Terminal Aerodrome Forecast
Issued by NWS Quad Cities IA IL

Home | Current Version | Previous Version | Text Only | Print | Product List | Glossary On
Versions: 1 2 3 4 5 6 7 8 9 10 11 12 13 14 15 16
000
FTUS43 KDVN 301100
TAFMLI
TAF
KMLI 301135Z 3012/3112 28005KT P6SM SKC
     FM301700 31010KT P6SM SCT050 PROB30 3021/3101 -SHRA BKN035
     FM310200 28004KT P6SM SCT100=

USA.gov is the U.S. government's official web portal to all federal, state and local government web resources and services.